This is the latest recevied weather packets stored in our database for station/object VU3KEB-1. If no packets are shown the sender has not sent any weather packets the latest 10 day(s).
| Time | Temp. | Humidity | Pressure | Rain* | Wind** | Luminosity | Snow |
|---|---|---|---|---|---|---|---|
| 1787716635 | 25° C | 69% | 1035.1 hPa | - | - | - | - |
| 1787715420 | 25° C | 69% | 1035.1 hPa | - | - | - | - |
| 1787667382 | 24.44° C | 81% | 1033.6 hPa | - | - | - | - |
| 1787666166 | 25° C | 77% | 1032.6 hPa | - | - | - | - |
| 1787664952 | 25° C | 77% | 1032.6 hPa | - | - | - | - |
| 1787663734 | 25° C | 77% | 1032.6 hPa | - | - | - | - |
| 1787662520 | 25.56° C | 74% | 1031.4 hPa | - | - | - | - |
| 1787661306 | 25.56° C | 74% | 1031.4 hPa | - | - | - | - |
| 1787660091 | 25.56° C | 72% | 1031.2 hPa | - | - | - | - |
| 1787658874 | 26.11° C | 72% | 1031.2 hPa | - | - | - | - |
| 1787657657 | 26.11° C | 72% | 1031.2 hPa | - | - | - | - |
| 1787656443 | 26.67° C | 68% | 1031.3 hPa | - | - | - | - |
| 1787655229 | 26.67° C | 68% | 1031.3 hPa | - | - | - | - |
| 1787654015 | 27.22° C | 68% | 1031.3 hPa | - | - | - | - |
| 1787652800 | 27.78° C | 62% | 1031.4 hPa | - | - | - | - |
| 1787651586 | 27.78° C | 62% | 1031.4 hPa | - | - | - | - |
| 1787650371 | 27.78° C | 62% | 1031.4 hPa | - | - | - | - |
| 1787649156 | 27.22° C | 64% | 1032 hPa | - | - | - | - |
| 1787647942 | 27.22° C | 64% | 1032 hPa | - | - | - | - |
| 1787646728 | 27.22° C | 64% | 1032 hPa | - | - | - | - |
| 1787645513 | 27.22° C | 65% | 1032.7 hPa | - | - | - | - |
| 1787644296 | 26.67° C | 65% | 1032.7 hPa | - | - | - | - |
| 1787643080 | 26.67° C | 65% | 1032.7 hPa | - | - | - | - |
| 1787641866 | 26.11° C | 72% | 1033.4 hPa | - | - | - | - |
| 1787640652 | 26.11° C | 72% | 1033.4 hPa | - | - | - | - |
* Rain since midnight (hover to see other rain measurements)
** Current wind speed in m/s (hover to see current wind gust speed)